sensor_id;sensor_type;location;lat;lon;timestamp;pressure;altitude;pressure_sealevel;temperature
64600;BMP280;6553;48.412;9.514;2023-07-02T00:01:51;72106.41;;;23.98
64600;BMP280;6553;48.412;9.514;2023-07-02T00:04:17;72106.91;;;23.99
64600;BMP280;6553;48.412;9.514;2023-07-02T00:06:46;72098.56;;;23.99
64600;BMP280;6553;48.412;9.514;2023-07-02T00:09:13;72105.88;;;23.98
64600;BMP280;6553;48.412;9.514;2023-07-02T00:11:42;72104.81;;;23.97
64600;BMP280;6553;48.412;9.514;2023-07-02T00:14:09;72104.28;;;23.96
64600;BMP280;6553;48.412;9.514;2023-07-02T00:16:41;72102.69;;;23.95
64600;BMP280;6553;48.412;9.514;2023-07-02T00:19:07;72101.50;;;23.96
64600;BMP280;6553;48.412;9.514;2023-07-02T00:21:33;72108.13;;;23.97
64600;BMP280;6553;48.412;9.514;2023-07-02T00:24:00;72109.19;;;23.98
64600;BMP280;6553;48.412;9.514;2023-07-02T00:26:27;72106.91;;;23.99
64600;BMP280;6553;48.412;9.514;2023-07-02T00:28:54;72106.41;;;23.98
64600;BMP280;6553;48.412;9.514;2023-07-02T00:31:22;72106.91;;;23.99
64600;BMP280;6553;48.412;9.514;2023-07-02T00:33:50;72104.28;;;23.96
64600;BMP280;6553;48.412;9.514;2023-07-02T00:36:16;72110.94;;;23.97
64600;BMP280;6553;48.412;9.514;2023-07-02T00:38:45;72102.69;;;23.95
64600;BMP280;6553;48.412;9.514;2023-07-02T00:41:12;72101.50;;;23.96
64600;BMP280;6553;48.412;9.514;2023-07-02T00:43:38;72106.00;;;23.95
64600;BMP280;6553;48.412;9.514;2023-07-02T00:46:18;72105.88;;;23.98
64600;BMP280;6553;48.412;9.514;2023-07-02T00:48:51;72098.84;;;23.94
64600;BMP280;6553;48.412;9.514;2023-07-02T00:51:24;72101.50;;;23.96
64600;BMP280;6553;48.412;9.514;2023-07-02T00:53:53;72103.19;;;23.95
64600;BMP280;6553;48.412;9.514;2023-07-02T00:56:21;72103.19;;;23.95
64600;BMP280;6553;48.412;9.514;2023-07-02T00:58:48;72094.44;;;23.92
64600;BMP280;6553;48.412;9.514;2023-07-02T01:01:21;72105.47;;;23.95
64600;BMP280;6553;48.412;9.514;2023-07-02T01:03:53;72107.72;;;23.94
64600;BMP280;6553;48.412;9.514;2023-07-02T01:06:24;72097.63;;;23.95
64600;BMP280;6553;48.412;9.514;2023-07-02T01:08:53;72102.69;;;23.95
64600;BMP280;6553;48.412;9.514;2023-07-02T01:11:23;72101.09;;;23.93
64600;BMP280;6553;48.412;9.514;2023-07-02T01:13:56;72100.56;;;23.93
64600;BMP280;6553;48.412;9.514;2023-07-02T01:16:24;72096.56;;;23.94
64600;BMP280;6553;48.412;9.514;2023-07-02T01:18:51;72102.69;;;23.95
64600;BMP280;6553;48.412;9.514;2023-07-02T01:21:23;72093.91;;;23.92
64600;BMP280;6553;48.412;9.514;2023-07-02T01:23:50;72094.03;;;23.89
64600;BMP280;6553;48.412;9.514;2023-07-02T01:26:16;72098.97;;;23.91
64600;BMP280;6553;48.412;9.514;2023-07-02T01:28:42;72093.91;;;23.92
64600;BMP280;6553;48.412;9.514;2023-07-02T01:31:08;72098.41;;;23.91
64600;BMP280;6553;48.412;9.514;2023-07-02T01:33:35;72098.97;;;23.91
64600;BMP280;6553;48.412;9.514;2023-07-02T01:36:01;72093.91;;;23.92
64600;BMP280;6553;48.412;9.514;2023-07-02T01:38:26;72101.22;;;23.91
64600;BMP280;6553;48.412;9.514;2023-07-02T01:40:53;72102.25;;;23.92
64600;BMP280;6553;48.412;9.514;2023-07-02T01:43:19;72093.50;;;23.89
64600;BMP280;6553;48.412;9.514;2023-07-02T01:45:45;72095.13;;;23.90
64600;BMP280;6553;48.412;9.514;2023-07-02T01:48:10;72098.97;;;23.91
64600;BMP280;6553;48.412;9.514;2023-07-02T01:50:36;72100.00;;;23.92
64600;BMP280;6553;48.412;9.514;2023-07-02T01:53:02;72097.38;;;23.90
64600;BMP280;6553;48.412;9.514;2023-07-02T01:55:27;72089.78;;;23.85
64600;BMP280;6553;48.412;9.514;2023-07-02T01:57:53;72089.13;;;23.87
64600;BMP280;6553;48.412;9.514;2023-07-02T02:00:19;72095.75;;;23.88
64600;BMP280;6553;48.412;9.514;2023-07-02T02:02:45;72095.75;;;23.88
64600;BMP280;6553;48.412;9.514;2023-07-02T02:05:10;72092.44;;;23.88
64600;BMP280;6553;48.412;9.514;2023-07-02T02:07:36;72094.03;;;23.89
64600;BMP280;6553;48.412;9.514;2023-07-02T02:10:03;72095.75;;;23.88
64600;BMP280;6553;48.412;9.514;2023-07-02T02:12:30;72092.44;;;23.88
64600;BMP280;6553;48.412;9.514;2023-07-02T02:14:56;72093.50;;;23.89
64600;BMP280;6553;48.412;9.514;2023-07-02T02:17:22;72090.31;;;23.86
64600;BMP280;6553;48.412;9.514;2023-07-02T02:19:49;72090.84;;;23.86
64600;BMP280;6553;48.412;9.514;2023-07-02T02:22:16;72093.09;;;23.86
64600;BMP280;6553;48.412;9.514;2023-07-02T02:24:42;72098.03;;;23.88
64600;BMP280;6553;48.412;9.514;2023-07-02T02:27:08;72092.56;;;23.85
64600;BMP280;6553;48.412;9.514;2023-07-02T02:29:34;72093.66;;;23.86
64600;BMP280;6553;48.412;9.514;2023-07-02T02:32:00;72093.09;;;23.86
64600;BMP280;6553;48.412;9.514;2023-07-02T02:34:26;72087.69;;;23.83
64600;BMP280;6553;48.412;9.514;2023-07-02T02:36:52;72098.16;;;23.85
64600;BMP280;6553;48.412;9.514;2023-07-02T02:39:21;72095.91;;;23.86
64600;BMP280;6553;48.412;9.514;2023-07-02T02:41:46;72087.69;;;23.83
64600;BMP280;6553;48.412;9.514;2023-07-02T02:44:15;72092.03;;;23.85
64600;BMP280;6553;48.412;9.514;2023-07-02T02:46:41;72092.72;;;23.83
64600;BMP280;6553;48.412;9.514;2023-07-02T02:49:07;72085.94;;;23.84
64600;BMP280;6553;48.412;9.514;2023-07-02T02:51:32;72086.47;;;23.85
64600;BMP280;6553;48.412;9.514;2023-07-02T02:53:58;72091.53;;;23.84
64600;BMP280;6553;48.412;9.514;2023-07-02T02:56:24;72090.47;;;23.83
64600;BMP280;6553;48.412;9.514;2023-07-02T02:58:49;72085.41;;;23.84
64600;BMP280;6553;48.412;9.514;2023-07-02T03:01:15;72083.03;;;23.76
64600;BMP280;6553;48.412;9.514;2023-07-02T03:03:41;72093.25;;;23.83
64600;BMP280;6553;48.412;9.514;2023-07-02T03:06:13;72082.75;;;23.81
64600;BMP280;6553;48.412;9.514;2023-07-02T03:08:39;72087.69;;;23.83
64600;BMP280;6553;48.412;9.514;2023-07-02T03:11:05;72088.84;;;23.82
64600;BMP280;6553;48.412;9.514;2023-07-02T03:13:30;72088.84;;;23.82
64600;BMP280;6553;48.412;9.514;2023-07-02T03:15:56;72087.78;;;23.81
64600;BMP280;6553;48.412;9.514;2023-07-02T03:18:22;72090.59;;;23.81
64600;BMP280;6553;48.412;9.514;2023-07-02T03:20:48;72086.59;;;23.82
64600;BMP280;6553;48.412;9.514;2023-07-02T03:23:13;72088.31;;;23.81
64600;BMP280;6553;48.412;9.514;2023-07-02T03:25:39;72080.09;;;23.79
64600;BMP280;6553;48.412;9.514;2023-07-02T03:28:05;72090.03;;;23.80
64600;BMP280;6553;48.412;9.514;2023-07-02T03:30:30;72087.25;;;23.80
64600;BMP280;6553;48.412;9.514;2023-07-02T03:32:57;72089.38;;;23.82
64600;BMP280;6553;48.412;9.514;2023-07-02T03:35:23;72086.75;;;23.80
64600;BMP280;6553;48.412;9.514;2023-07-02T03:37:48;72082.88;;;23.79
64600;BMP280;6553;48.412;9.514;2023-07-02T03:40:14;72082.75;;;23.81
64600;BMP280;6553;48.412;9.514;2023-07-02T03:42:40;72089.38;;;23.82
64600;BMP280;6553;48.412;9.514;2023-07-02T03:45:06;72085.00;;;23.81
64600;BMP280;6553;48.412;9.514;2023-07-02T03:47:32;72089.38;;;23.82
64600;BMP280;6553;48.412;9.514;2023-07-02T03:49:58;72086.19;;;23.79
64600;BMP280;6553;48.412;9.514;2023-07-02T03:52:24;72086.19;;;23.79
64600;BMP280;6553;48.412;9.514;2023-07-02T03:54:49;72085.00;;;23.81
64600;BMP280;6553;48.412;9.514;2023-07-02T03:57:15;72083.41;;;23.79
64600;BMP280;6553;48.412;9.514;2023-07-02T03:59:41;72078.09;;;23.74
64600;BMP280;6553;48.412;9.514;2023-07-02T04:02:07;72082.88;;;23.79
64600;BMP280;6553;48.412;9.514;2023-07-02T04:04:32;72087.25;;;23.80
64600;BMP280;6553;48.412;9.514;2023-07-02T04:06:58;72087.25;;;23.80
64600;BMP280;6553;48.412;9.514;2023-07-02T04:09:24;72082.34;;;23.78
64600;BMP280;6553;48.412;9.514;2023-07-02T04:11:49;72083.03;;;23.76
64600;BMP280;6553;48.412;9.514;2023-07-02T04:14:15;72082.88;;;23.79
64600;BMP280;6553;48.412;9.514;2023-07-02T04:16:44;72079.56;;;23.78
64600;BMP280;6553;48.412;9.514;2023-07-02T04:19:10;72087.91;;;23.78
64600;BMP280;6553;48.412;9.514;2023-07-02T04:21:36;72083.53;;;23.77
64600;BMP280;6553;48.412;9.514;2023-07-02T04:24:02;72087.91;;;23.78
64600;BMP280;6553;48.412;9.514;2023-07-02T04:26:27;72082.47;;;23.76
64600;BMP280;6553;48.412;9.514;2023-07-02T04:28:55;72084.59;;;23.78
64600;BMP280;6553;48.412;9.514;2023-07-02T04:31:21;72084.06;;;23.77
64600;BMP280;6553;48.412;9.514;2023-07-02T04:33:47;72082.47;;;23.76
64600;BMP280;6553;48.412;9.514;2023-07-02T04:36:13;72085.66;;;23.79
64600;BMP280;6553;48.412;9.514;2023-07-02T04:38:38;72079.16;;;23.75
64600;BMP280;6553;48.412;9.514;2023-07-02T04:41:05;72087.91;;;23.78
64600;BMP280;6553;48.412;9.514;2023-07-02T04:43:34;72081.81;;;23.78
64600;BMP280;6553;48.412;9.514;2023-07-02T04:46:00;72084.06;;;23.77
64600;BMP280;6553;48.412;9.514;2023-07-02T04:48:26;72090.16;;;23.78
64600;BMP280;6553;48.412;9.514;2023-07-02T04:50:51;72084.06;;;23.77
64600;BMP280;6553;48.412;9.514;2023-07-02T04:53:17;72083.53;;;23.77
64600;BMP280;6553;48.412;9.514;2023-07-02T04:55:43;72084.06;;;23.77
64600;BMP280;6553;48.412;9.514;2023-07-02T04:58:09;72080.75;;;23.77
64600;BMP280;6553;48.412;9.514;2023-07-02T05:00:35;72085.66;;;23.79
64600;BMP280;6553;48.412;9.514;2023-07-02T05:03:00;72078.63;;;23.75
64600;BMP280;6553;48.412;9.514;2023-07-02T05:05:26;72080.22;;;23.76
64600;BMP280;6553;48.412;9.514;2023-07-02T05:07:53;72081.28;;;23.77
64600;BMP280;6553;48.412;9.514;2023-07-02T05:10:19;72082.09;;;23.73
64600;BMP280;6553;48.412;9.514;2023-07-02T05:12:45;72083.03;;;23.76
64600;BMP280;6553;48.412;9.514;2023-07-02T05:15:11;72083.53;;;23.77
64600;BMP280;6553;48.412;9.514;2023-07-02T05:17:37;72083.66;;;23.74
64600;BMP280;6553;48.412;9.514;2023-07-02T05:20:04;72086.84;;;23.77
64600;BMP280;6553;48.412;9.514;2023-07-02T05:22:30;72081.41;;;23.75
64600;BMP280;6553;48.412;9.514;2023-07-02T05:24:56;72071.56;;;23.71
64600;BMP280;6553;48.412;9.514;2023-07-02T05:27:22;72078.63;;;23.75
64600;BMP280;6553;48.412;9.514;2023-07-02T05:29:48;72078.09;;;23.74
64600;BMP280;6553;48.412;9.514;2023-07-02T05:32:13;72078.09;;;23.74
64600;BMP280;6553;48.412;9.514;2023-07-02T05:34:39;72070.94;;;23.73
64600;BMP280;6553;48.412;9.514;2023-07-02T05:37:05;72079.69;;;23.76
64600;BMP280;6553;48.412;9.514;2023-07-02T05:39:33;72080.88;;;23.74
64600;BMP280;6553;48.412;9.514;2023-07-02T05:41:59;72079.31;;;23.73
64600;BMP280;6553;48.412;9.514;2023-07-02T05:44:25;72083.03;;;23.76
64600;BMP280;6553;48.412;9.514;2023-07-02T05:46:50;72086.97;;;23.75
64600;BMP280;6553;48.412;9.514;2023-07-02T05:49:16;72074.25;;;23.73
64600;BMP280;6553;48.412;9.514;2023-07-02T05:51:42;72081.94;;;23.75
64600;BMP280;6553;48.412;9.514;2023-07-02T05:54:08;72075.84;;;23.75
64600;BMP280;6553;48.412;9.514;2023-07-02T05:56:33;72083.53;;;23.77
64600;BMP280;6553;48.412;9.514;2023-07-02T05:58:59;72083.03;;;23.76
64600;BMP280;6553;48.412;9.514;2023-07-02T06:01:25;72082.47;;;23.76
64600;BMP280;6553;48.412;9.514;2023-07-02T06:03:50;72083.03;;;23.76
64600;BMP280;6553;48.412;9.514;2023-07-02T06:06:16;72079.69;;;23.76
64600;BMP280;6553;48.412;9.514;2023-07-02T06:08:42;72078.09;;;23.74
64600;BMP280;6553;48.412;9.514;2023-07-02T06:11:10;72079.16;;;23.75
64600;BMP280;6553;48.412;9.514;2023-07-02T06:13:35;72079.81;;;23.73
64600;BMP280;6553;48.412;9.514;2023-07-02T06:16:01;72078.63;;;23.75
64600;BMP280;6553;48.412;9.514;2023-07-02T06:18:27;72083.53;;;23.77
64600;BMP280;6553;48.412;9.514;2023-07-02T06:20:53;72080.63;;;23.79
64600;BMP280;6553;48.412;9.514;2023-07-02T06:23:18;72086.19;;;23.79
64600;BMP280;6553;48.412;9.514;2023-07-02T06:25:44;72092.84;;;23.80
64600;BMP280;6553;48.412;9.514;2023-07-02T06:28:10;72089.38;;;23.82
64600;BMP280;6553;48.412;9.514;2023-07-02T06:30:36;72091.63;;;23.82
64600;BMP280;6553;48.412;9.514;2023-07-02T06:33:02;72086.75;;;23.80
64600;BMP280;6553;48.412;9.514;2023-07-02T06:35:27;72087.69;;;23.83
64600;BMP280;6553;48.412;9.514;2023-07-02T06:37:53;72092.03;;;23.85
64600;BMP280;6553;48.412;9.514;2023-07-02T06:40:20;72091.41;;;23.87
64600;BMP280;6553;48.412;9.514;2023-07-02T06:42:47;72087.00;;;23.85
64600;BMP280;6553;48.412;9.514;2023-07-02T06:45:13;72092.72;;;23.83
64600;BMP280;6553;48.412;9.514;2023-07-02T06:47:39;72089.25;;;23.85
64600;BMP280;6553;48.412;9.514;2023-07-02T06:50:05;72081.03;;;23.82
64600;BMP280;6553;48.412;9.514;2023-07-02T06:52:31;72088.19;;;23.84
64600;BMP280;6553;48.412;9.514;2023-07-02T06:54:57;72087.69;;;23.83
64600;BMP280;6553;48.412;9.514;2023-07-02T06:57:22;72090.47;;;23.83
64600;BMP280;6553;48.412;9.514;2023-07-02T06:59:49;72087.53;;;23.86
64600;BMP280;6553;48.412;9.514;2023-07-02T07:02:15;72092.19;;;23.82
64600;BMP280;6553;48.412;9.514;2023-07-02T07:04:41;72092.03;;;23.85
64600;BMP280;6553;48.412;9.514;2023-07-02T07:07:07;72090.31;;;23.86
64600;BMP280;6553;48.412;9.514;2023-07-02T07:09:32;72089.13;;;23.87
64600;BMP280;6553;48.412;9.514;2023-07-02T07:11:58;72091.25;;;23.89
64600;BMP280;6553;48.412;9.514;2023-07-02T07:14:24;72100.00;;;23.92
64600;BMP280;6553;48.412;9.514;2023-07-02T07:16:50;72091.78;;;23.90
64600;BMP280;6553;48.412;9.514;2023-07-02T07:19:16;72092.97;;;23.88
64600;BMP280;6553;48.412;9.514;2023-07-02T07:21:42;72100.81;;;23.88
64600;BMP280;6553;48.412;9.514;2023-07-02T07:24:09;72102.94;;;23.90
64600;BMP280;6553;48.412;9.514;2023-07-02T07:26:34;72097.38;;;23.90
64600;BMP280;6553;48.412;9.514;2023-07-02T07:29:00;72095.63;;;23.91
64600;BMP280;6553;48.412;9.514;2023-07-02T07:31:26;72097.22;;;23.92
64600;BMP280;6553;48.412;9.514;2023-07-02T07:33:52;72097.22;;;23.92
64600;BMP280;6553;48.412;9.514;2023-07-02T07:36:17;72100.56;;;23.93
64600;BMP280;6553;48.412;9.514;2023-07-02T07:38:44;72092.44;;;23.88
64600;BMP280;6553;48.412;9.514;2023-07-02T07:41:09;72094.03;;;23.89
64600;BMP280;6553;48.412;9.514;2023-07-02T07:43:35;72090.31;;;23.86
64600;BMP280;6553;48.412;9.514;2023-07-02T07:46:01;72097.91;;;23.90
64600;BMP280;6553;48.412;9.514;2023-07-02T07:48:26;72101.63;;;23.94
64600;BMP280;6553;48.412;9.514;2023-07-02T07:50:52;72102.16;;;23.94
64600;BMP280;6553;48.412;9.514;2023-07-02T07:53:18;72100.41;;;23.95
64600;BMP280;6553;48.412;9.514;2023-07-02T07:55:44;72101.09;;;23.93
64600;BMP280;6553;48.412;9.514;2023-07-02T07:58:10;72098.31;;;23.93
64600;BMP280;6553;48.412;9.514;2023-07-02T08:00:35;72094.69;;;23.87
64600;BMP280;6553;48.412;9.514;2023-07-02T08:03:01;72099.34;;;23.94
64600;BMP280;6553;48.412;9.514;2023-07-02T08:05:32;72094.44;;;23.92
64600;BMP280;6553;48.412;9.514;2023-07-02T08:07:57;72098.84;;;23.94
64600;BMP280;6553;48.412;9.514;2023-07-02T08:10:24;72111.97;;;23.98
64600;BMP280;6553;48.412;9.514;2023-07-02T08:12:51;72114.66;;;24.01
64600;BMP280;6553;48.412;9.514;2023-07-02T08:15:18;72104.81;;;23.97
64600;BMP280;6553;48.412;9.514;2023-07-02T08:17:44;72103.75;;;23.96
64600;BMP280;6553;48.412;9.514;2023-07-02T08:20:11;72106.41;;;23.98
64600;BMP280;6553;48.412;9.514;2023-07-02T08:22:40;72106.53;;;23.96
64600;BMP280;6553;48.412;9.514;2023-07-02T08:25:07;72101.50;;;23.96
64600;BMP280;6553;48.412;9.514;2023-07-02T08:27:33;72099.22;;;23.97
64600;BMP280;6553;48.412;9.514;2023-07-02T08:29:59;72102.69;;;23.95
64600;BMP280;6553;48.412;9.514;2023-07-02T08:32:25;72101.63;;;23.94
64600;BMP280;6553;48.412;9.514;2023-07-02T08:34:50;72108.13;;;23.97
64600;BMP280;6553;48.412;9.514;2023-07-02T08:37:17;72106.41;;;23.98
64600;BMP280;6553;48.412;9.514;2023-07-02T08:39:43;72109.59;;;24.01
64600;BMP280;6553;48.412;9.514;2023-07-02T08:42:09;72118.88;;;24.05
64600;BMP280;6553;48.412;9.514;2023-07-02T08:44:35;72111.47;;;24.08
64600;BMP280;6553;48.412;9.514;2023-07-02T08:47:01;72117.44;;;24.11
64600;BMP280;6553;48.412;9.514;2023-07-02T08:49:27;72132.97;;;24.13
64600;BMP280;6553;48.412;9.514;2023-07-02T08:51:53;72120.22;;;24.11
64600;BMP280;6553;48.412;9.514;2023-07-02T08:54:19;72121.28;;;24.12
64600;BMP280;6553;48.412;9.514;2023-07-02T08:56:46;72105.34;;;23.97
64600;BMP280;6553;48.412;9.514;2023-07-02T08:59:12;72108.53;;;24.00
64600;BMP280;6553;48.412;9.514;2023-07-02T09:01:51;72109.19;;;23.98
64600;BMP280;6553;48.412;9.514;2023-07-02T09:04:21;72111.31;;;24.00
64600;BMP280;6553;48.412;9.514;2023-07-02T09:06:48;72112.38;;;24.01
64600;BMP280;6553;48.412;9.514;2023-07-02T09:09:14;72110.53;;;24.05
64600;BMP280;6553;48.412;9.514;2023-07-02T09:11:50;72112.66;;;24.07
64600;BMP280;6553;48.412;9.514;2023-07-02T09:14:26;72115.97;;;24.07
64600;BMP280;6553;48.412;9.514;2023-07-02T09:17:07;72117.03;;;24.08
64600;BMP280;6553;48.412;9.514;2023-07-02T09:19:36;72116.91;;;24.11
64600;BMP280;6553;48.412;9.514;2023-07-02T09:22:03;72111.47;;;24.08
64600;BMP280;6553;48.412;9.514;2023-07-02T09:24:30;72114.38;;;24.06
64600;BMP280;6553;48.412;9.514;2023-07-02T09:26:59;72117.16;;;24.06
64600;BMP280;6553;48.412;9.514;2023-07-02T09:31:55;72119.69;;;24.11
64600;BMP280;6553;48.412;9.514;2023-07-02T09:34:28;72121.28;;;24.12
64600;BMP280;6553;48.412;9.514;2023-07-02T09:36:54;72115.19;;;24.12
64600;BMP280;6553;48.412;9.514;2023-07-02T09:39:27;72117.44;;;24.11
64600;BMP280;6553;48.412;9.514;2023-07-02T09:42:00;72121.94;;;24.10
64600;BMP280;6553;48.412;9.514;2023-07-02T09:47:08;72121.28;;;24.12
64600;BMP280;6553;48.412;9.514;2023-07-02T09:49:37;72113.84;;;24.05
64600;BMP280;6553;48.412;9.514;2023-07-02T09:52:08;72118.09;;;24.09
64600;BMP280;6553;48.412;9.514;2023-07-02T09:54:48;72115.84;;;24.10
64600;BMP280;6553;48.412;9.514;2023-07-02T09:57:13;72118.75;;;24.07
64600;BMP280;6553;48.412;9.514;2023-07-02T09:59:42;72115.97;;;24.07
64600;BMP280;6553;48.412;9.514;2023-07-02T10:02:10;72118.09;;;24.09
64600;BMP280;6553;48.412;9.514;2023-07-02T10:04:44;72116.38;;;24.10
64600;BMP280;6553;48.412;9.514;2023-07-02T10:07:11;72120.75;;;24.12
64600;BMP280;6553;48.412;9.514;2023-07-02T10:09:41;72122.34;;;24.13
64600;BMP280;6553;48.412;9.514;2023-07-02T10:12:21;72124.47;;;24.15
64600;BMP280;6553;48.412;9.514;2023-07-02T10:14:51;72123.94;;;24.15
64600;BMP280;6553;48.412;9.514;2023-07-02T10:17:31;72123.94;;;24.15
64600;BMP280;6553;48.412;9.514;2023-07-02T10:20:07;72126.72;;;24.15
64600;BMP280;6553;48.412;9.514;2023-07-02T10:22:44;72122.34;;;24.13
64600;BMP280;6553;48.412;9.514;2023-07-02T10:25:10;72128.31;;;24.16
64600;BMP280;6553;48.412;9.514;2023-07-02T10:27:41;72119.94;;;24.16
64600;BMP280;6553;48.412;9.514;2023-07-02T10:30:09;72143.88;;;24.18
64600;BMP280;6553;48.412;9.514;2023-07-02T10:32:37;72124.34;;;24.18
64600;BMP280;6553;48.412;9.514;2023-07-02T10:35:17;72122.22;;;24.16
64600;BMP280;6553;48.412;9.514;2023-07-02T10:37:44;72122.34;;;24.13
64600;BMP280;6553;48.412;9.514;2023-07-02T10:40:12;72121.84;;;24.13
64600;BMP280;6553;48.412;9.514;2023-07-02T10:42:51;72121.28;;;24.12
64600;BMP280;6553;48.412;9.514;2023-07-02T10:45:19;72122.75;;;24.16
64600;BMP280;6553;48.412;9.514;2023-07-02T10:47:46;72128.19;;;24.19
64600;BMP280;6553;48.412;9.514;2023-07-02T10:50:19;72125.13;;;24.13
64600;BMP280;6553;48.412;9.514;2023-07-02T10:52:47;72125.00;;;24.16
64600;BMP280;6553;48.412;9.514;2023-07-02T10:55:21;72122.88;;;24.14
64600;BMP280;6553;48.412;9.514;2023-07-02T10:57:48;72123.44;;;24.14
64600;BMP280;6553;48.412;9.514;2023-07-02T11:00:17;72125.53;;;24.16
64600;BMP280;6553;48.412;9.514;2023-07-02T11:02:43;72122.34;;;24.13
64600;BMP280;6553;48.412;9.514;2023-07-02T11:05:10;72124.88;;;24.18
64600;BMP280;6553;48.412;9.514;2023-07-02T11:07:42;72124.47;;;24.15
64600;BMP280;6553;48.412;9.514;2023-07-02T11:10:10;72132.06;;;24.20
64600;BMP280;6553;48.412;9.514;2023-07-02T11:12:37;72126.47;;;24.20
64600;BMP280;6553;48.412;9.514;2023-07-02T11:15:14;72125.94;;;24.19
64600;BMP280;6553;48.412;9.514;2023-07-02T11:17:41;72127.00;;;24.20
64600;BMP280;6553;48.412;9.514;2023-07-02T11:20:12;72125.94;;;24.19
64600;BMP280;6553;48.412;9.514;2023-07-02T11:22:40;72129.78;;;24.20
64600;BMP280;6553;48.412;9.514;2023-07-02T11:25:19;72124.34;;;24.18
64600;BMP280;6553;48.412;9.514;2023-07-02T11:27:46;72125.00;;;24.16
64600;BMP280;6553;48.412;9.514;2023-07-02T11:30:12;72129.94;;;24.18
64600;BMP280;6553;48.412;9.514;2023-07-02T11:32:53;72127.66;;;24.18
64600;BMP280;6553;48.412;9.514;2023-07-02T11:35:21;72134.72;;;24.22
64600;BMP280;6553;48.412;9.514;2023-07-02T11:37:47;72130.31;;;24.21
64600;BMP280;6553;48.412;9.514;2023-07-02T11:40:17;72128.06;;;24.21
64600;BMP280;6553;48.412;9.514;2023-07-02T11:42:43;72130.31;;;24.21
64600;BMP280;6553;48.412;9.514;2023-07-02T11:45:10;72131.38;;;24.22
64600;BMP280;6553;48.412;9.514;2023-07-02T11:47:37;72131.38;;;24.22
64600;BMP280;6553;48.412;9.514;2023-07-02T11:50:05;72124.59;;;24.23
64600;BMP280;6553;48.412;9.514;2023-07-02T11:52:31;72131.38;;;24.22
64600;BMP280;6553;48.412;9.514;2023-07-02T11:54:57;72132.97;;;24.23
64600;BMP280;6553;48.412;9.514;2023-07-02T11:57:23;72135.09;;;24.25
64600;BMP280;6553;48.412;9.514;2023-07-02T11:59:49;72127.41;;;24.23
64600;BMP280;6553;48.412;9.514;2023-07-02T12:02:15;72133.50;;;24.24
64600;BMP280;6553;48.412;9.514;2023-07-02T12:04:42;72136.84;;;24.24
64600;BMP280;6553;48.412;9.514;2023-07-02T12:07:07;72131.38;;;24.22
64600;BMP280;6553;48.412;9.514;2023-07-02T12:09:33;72132.47;;;24.23
64600;BMP280;6553;48.412;9.514;2023-07-02T12:11:59;72134.59;;;24.25
64600;BMP280;6553;48.412;9.514;2023-07-02T12:14:25;72134.06;;;24.24
64600;BMP280;6553;48.412;9.514;2023-07-02T12:16:51;72129.13;;;24.22
64600;BMP280;6553;48.412;9.514;2023-07-02T12:19:16;72122.88;;;24.14
64600;BMP280;6553;48.412;9.514;2023-07-02T12:21:42;72128.59;;;24.22
64600;BMP280;6553;48.412;9.514;2023-07-02T12:24:08;72130.19;;;24.23
64600;BMP280;6553;48.412;9.514;2023-07-02T12:26:40;72132.31;;;24.25
64600;BMP280;6553;48.412;9.514;2023-07-02T12:29:06;72133.66;;;24.21
64600;BMP280;6553;48.412;9.514;2023-07-02T12:31:31;72128.06;;;24.21
64600;BMP280;6553;48.412;9.514;2023-07-02T12:33:57;72132.97;;;24.23
64600;BMP280;6553;48.412;9.514;2023-07-02T12:36:23;72134.06;;;24.24
64600;BMP280;6553;48.412;9.514;2023-07-02T12:38:49;72132.31;;;24.25
64600;BMP280;6553;48.412;9.514;2023-07-02T12:41:14;72134.06;;;24.24
64600;BMP280;6553;48.412;9.514;2023-07-02T12:43:40;72133.50;;;24.24
64600;BMP280;6553;48.412;9.514;2023-07-02T12:46:06;72133.50;;;24.24
64600;BMP280;6553;48.412;9.514;2023-07-02T12:48:32;72133.50;;;24.24
64600;BMP280;6553;48.412;9.514;2023-07-02T12:50:59;72131.91;;;24.22
64600;BMP280;6553;48.412;9.514;2023-07-02T12:53:27;72124.59;;;24.23
64600;BMP280;6553;48.412;9.514;2023-07-02T12:55:53;72135.09;;;24.25
64600;BMP280;6553;48.412;9.514;2023-07-02T12:58:20;72135.78;;;24.23
64600;BMP280;6553;48.412;9.514;2023-07-02T13:00:47;72129.13;;;24.22
64600;BMP280;6553;48.412;9.514;2023-07-02T13:03:14;72128.59;;;24.22
64600;BMP280;6553;48.412;9.514;2023-07-02T13:05:40;72130.72;;;24.24
64600;BMP280;6553;48.412;9.514;2023-07-02T13:08:06;72126.47;;;24.20
64600;BMP280;6553;48.412;9.514;2023-07-02T13:10:33;72128.19;;;24.19
64600;BMP280;6553;48.412;9.514;2023-07-02T13:13:00;72130.88;;;24.21
64600;BMP280;6553;48.412;9.514;2023-07-02T13:15:26;72126.88;;;24.23
64600;BMP280;6553;48.412;9.514;2023-07-02T13:17:51;72126.88;;;24.23
64600;BMP280;6553;48.412;9.514;2023-07-02T13:20:17;72132.97;;;24.23
64600;BMP280;6553;48.412;9.514;2023-07-02T13:22:43;72125.53;;;24.16
64600;BMP280;6553;48.412;9.514;2023-07-02T13:25:09;72125.53;;;24.16
64600;BMP280;6553;48.412;9.514;2023-07-02T13:27:35;72129.13;;;24.22
64600;BMP280;6553;48.412;9.514;2023-07-02T13:30:01;72128.59;;;24.22
64600;BMP280;6553;48.412;9.514;2023-07-02T13:32:27;72128.06;;;24.21
64600;BMP280;6553;48.412;9.514;2023-07-02T13:34:53;72127.00;;;24.20
64600;BMP280;6553;48.412;9.514;2023-07-02T13:37:19;72128.19;;;24.19
64600;BMP280;6553;48.412;9.514;2023-07-02T13:39:49;72116.25;;;24.13
64600;BMP280;6553;48.412;9.514;2023-07-02T13:42:15;72121.69;;;24.15
64600;BMP280;6553;48.412;9.514;2023-07-02T13:44:41;72128.59;;;24.22
64600;BMP280;6553;48.412;9.514;2023-07-02T13:47:07;72126.88;;;24.23
64600;BMP280;6553;48.412;9.514;2023-07-02T13:49:33;72133.50;;;24.24
64600;BMP280;6553;48.412;9.514;2023-07-02T13:51:59;72135.66;;;24.26
64600;BMP280;6553;48.412;9.514;2023-07-02T13:54:25;72129.13;;;24.22
64600;BMP280;6553;48.412;9.514;2023-07-02T13:56:52;72134.59;;;24.25
64600;BMP280;6553;48.412;9.514;2023-07-02T13:59:19;72133.91;;;24.27
64600;BMP280;6553;48.412;9.514;2023-07-02T14:01:47;72134.06;;;24.24
64600;BMP280;6553;48.412;9.514;2023-07-02T14:04:15;72133.38;;;24.26
64600;BMP280;6553;48.412;9.514;2023-07-02T14:06:41;72136.19;;;24.26
64600;BMP280;6553;48.412;9.514;2023-07-02T14:09:07;72136.69;;;24.27
64600;BMP280;6553;48.412;9.514;2023-07-02T14:11:37;72136.19;;;24.26
64600;BMP280;6553;48.412;9.514;2023-07-02T14:14:03;72129.53;;;24.25
64600;BMP280;6553;48.412;9.514;2023-07-02T14:16:30;72133.38;;;24.26
64600;BMP280;6553;48.412;9.514;2023-07-02T14:18:56;72130.59;;;24.26
64600;BMP280;6553;48.412;9.514;2023-07-02T14:21:22;72131.13;;;24.27
64600;BMP280;6553;48.412;9.514;2023-07-02T14:23:47;72138.44;;;24.26
64600;BMP280;6553;48.412;9.514;2023-07-02T14:26:13;72136.69;;;24.27